createdAt,value
2019-03-27T00:01:50.078Z,79.80
2019-03-27T00:04:25.052Z,79.70
2019-03-27T00:06:59.941Z,79.50
2019-03-27T00:09:32.731Z,79.52
2019-03-27T00:12:07.903Z,79.44
2019-03-27T00:14:39.932Z,79.18
2019-03-27T00:17:12.284Z,79.29
2019-03-27T00:19:51.995Z,79.29
2019-03-27T00:22:25.803Z,79.41
2019-03-27T00:24:58.147Z,79.54
2019-03-27T00:27:32.354Z,79.73
2019-03-27T00:30:06.424Z,79.95
2019-03-27T00:32:41.062Z,79.91
2019-03-27T00:35:13.256Z,79.81
2019-03-27T00:37:45.586Z,79.92
2019-03-27T00:40:20.565Z,79.74
2019-03-27T00:42:52.683Z,79.47
2019-03-27T00:45:26.953Z,79.43
2019-03-27T00:47:58.727Z,79.55
2019-03-27T00:50:30.955Z,79.71
2019-03-27T00:53:03.122Z,79.97
2019-03-27T00:55:35.297Z,80.28
2019-03-27T00:58:07.541Z,80.51
2019-03-27T01:01:12.531Z,80.76
2019-03-27T01:03:44.766Z,81.04
2019-03-27T01:06:17.090Z,81.46
2019-03-27T01:08:49.211Z,81.56
2019-03-27T01:11:21.286Z,81.83
2019-03-27T01:13:53.371Z,82.03
2019-03-27T01:16:25.527Z,82.39
2019-03-27T01:18:57.671Z,82.14
2019-03-27T01:21:29.803Z,81.69
2019-03-27T01:24:01.847Z,81.49
2019-03-27T01:26:33.938Z,80.87
2019-03-27T01:29:06.165Z,80.55
2019-03-27T01:31:38.392Z,79.12
2019-03-27T01:34:10.605Z,78.96
2019-03-27T01:36:42.774Z,78.36
2019-03-27T01:39:14.945Z,78.00
2019-03-27T01:41:47.113Z,77.77
2019-03-27T01:44:19.203Z,77.37
2019-03-27T01:46:51.763Z,77.83
2019-03-27T01:49:23.807Z,77.89
2019-03-27T01:51:55.865Z,77.64
2019-03-27T01:54:27.981Z,77.78
2019-03-27T01:56:59.989Z,77.98
2019-03-27T01:59:32.323Z,78.58
2019-03-27T02:02:04.454Z,78.99
2019-03-27T02:04:36.482Z,79.36
2019-03-27T02:07:08.604Z,79.05
2019-03-27T02:09:40.763Z,78.53
2019-03-27T02:12:12.836Z,78.46
2019-03-27T02:14:45.060Z,78.84
2019-03-27T02:17:17.203Z,79.31
2019-03-27T02:19:49.363Z,79.92
2019-03-27T02:22:21.397Z,79.96
2019-03-27T02:24:53.554Z,80.31
2019-03-27T02:27:25.638Z,80.69
2019-03-27T02:29:57.737Z,81.44
2019-03-27T02:32:29.771Z,82.05
2019-03-27T02:35:01.931Z,81.94
2019-03-27T02:37:33.963Z,82.42
2019-03-27T02:40:06.567Z,82.81
2019-03-27T02:42:38.655Z,83.66
2019-03-27T02:45:11.720Z,84.00
2019-03-27T02:47:43.790Z,83.93
2019-03-27T02:50:15.858Z,84.52
2019-03-27T02:52:48.006Z,85.03
2019-03-27T02:55:19.982Z,85.38
2019-03-27T02:57:52.048Z,85.29
2019-03-27T03:00:24.328Z,85.69
2019-03-27T03:02:56.453Z,86.02
2019-03-27T03:05:28.560Z,86.39
2019-03-27T03:08:00.655Z,86.54
2019-03-27T03:10:32.815Z,86.76
2019-03-27T03:13:04.933Z,86.78
2019-03-27T03:15:37.080Z,86.83
2019-03-27T03:18:09.203Z,86.96
2019-03-27T03:20:41.357Z,87.21
2019-03-27T03:23:13.443Z,87.18
2019-03-27T03:25:45.637Z,87.25
2019-03-27T03:28:17.779Z,87.29
2019-03-27T03:30:49.960Z,87.36
2019-03-27T03:33:22.143Z,87.31
2019-03-27T03:35:54.255Z,87.03
2019-03-27T03:38:26.357Z,86.49
2019-03-27T03:40:58.333Z,85.74
2019-03-27T03:43:30.424Z,84.46
2019-03-27T03:46:02.591Z,84.04
2019-03-27T03:48:34.671Z,83.64
2019-03-27T03:51:08.461Z,83.38
2019-03-27T03:53:40.433Z,83.37
2019-03-27T03:56:15.768Z,83.29
2019-03-27T03:58:48.880Z,83.31
2019-03-27T04:01:25.904Z,83.60
2019-03-27T04:03:59.439Z,83.45
2019-03-27T04:06:31.546Z,83.58
2019-03-27T04:09:03.829Z,83.67
2019-03-27T04:11:35.914Z,83.66
2019-03-27T04:14:07.952Z,83.99
2019-03-27T04:16:40.113Z,84.15
2019-03-27T04:19:12.208Z,84.30
2019-03-27T04:21:44.340Z,84.10
2019-03-27T04:24:16.438Z,84.04
2019-03-27T04:26:48.645Z,84.24
2019-03-27T04:29:20.879Z,84.30
2019-03-27T04:31:53.069Z,84.67
2019-03-27T04:34:25.239Z,84.97
2019-03-27T04:36:57.376Z,85.03
2019-03-27T04:39:29.457Z,85.19
2019-03-27T04:42:01.635Z,85.21
2019-03-27T04:44:33.675Z,85.40
2019-03-27T04:47:05.802Z,85.78
2019-03-27T04:52:13.988Z,86.29
2019-03-27T04:54:46.030Z,86.24
2019-03-27T04:57:18.115Z,86.39
2019-03-27T04:59:50.135Z,86.79
2019-03-27T05:02:22.287Z,86.92
2019-03-27T05:04:55.083Z,86.84
2019-03-27T05:07:27.297Z,86.83
2019-03-27T05:09:59.479Z,86.86
2019-03-27T05:12:31.587Z,87.19
2019-03-27T05:15:03.726Z,87.33
2019-03-27T05:17:45.746Z,87.37
2019-03-27T05:20:11.063Z,87.62
2019-03-27T05:22:43.068Z,87.78
2019-03-27T05:25:15.144Z,87.72
2019-03-27T05:27:47.371Z,87.80
2019-03-27T05:30:29.126Z,88.03
2019-03-27T05:33:01.492Z,88.18
2019-03-27T05:35:33.742Z,88.22
2019-03-27T05:38:05.985Z,88.33
2019-03-27T05:40:38.851Z,88.52
2019-03-27T05:43:11.003Z,88.74
2019-03-27T05:45:43.178Z,88.93
2019-03-27T05:48:15.337Z,89.04
2019-03-27T05:50:47.501Z,89.07
2019-03-27T05:53:20.068Z,89.07
2019-03-27T05:55:52.229Z,88.98
2019-03-27T05:58:24.319Z,88.87
2019-03-27T06:00:56.498Z,88.75
2019-03-27T06:03:28.556Z,88.64
2019-03-27T06:06:00.672Z,88.53
2019-03-27T06:08:32.803Z,88.65
2019-03-27T06:11:04.994Z,88.71
2019-03-27T06:13:37.266Z,88.74
2019-03-27T06:16:09.518Z,88.77
2019-03-27T06:18:41.696Z,88.79
2019-03-27T06:21:13.822Z,88.85
2019-03-27T06:23:45.914Z,88.99
2019-03-27T06:26:18.022Z,89.19
2019-03-27T06:28:50.388Z,89.43
2019-03-27T06:31:22.500Z,89.69
2019-03-27T06:33:54.640Z,89.86
2019-03-27T06:36:26.809Z,89.97
2019-03-27T06:38:58.919Z,90.03
2019-03-27T06:41:31.079Z,90.15
2019-03-27T06:44:03.325Z,90.01
2019-03-27T06:46:35.503Z,89.87
2019-03-27T06:49:08.013Z,88.72
2019-03-27T06:51:40.651Z,88.71
2019-03-27T06:54:13.003Z,89.06
2019-03-27T06:56:45.146Z,89.52
2019-03-27T06:59:17.308Z,88.97
2019-03-27T07:01:49.324Z,82.69
2019-03-27T07:04:21.476Z,80.64
2019-03-27T07:06:55.000Z,77.10
2019-03-27T07:09:27.216Z,73.65
2019-03-27T07:11:59.235Z,74.03
2019-03-27T07:14:31.341Z,73.20
2019-03-27T07:17:03.360Z,72.64
2019-03-27T07:19:35.543Z,72.77
2019-03-27T07:22:07.581Z,72.42
2019-03-27T07:24:39.661Z,72.41
2019-03-27T07:27:11.736Z,71.31
2019-03-27T07:29:43.886Z,70.35
2019-03-27T07:32:15.882Z,70.12
2019-03-27T07:34:47.940Z,69.28
2019-03-27T07:37:20.038Z,70.26
2019-03-27T07:39:52.116Z,70.23
2019-03-27T07:42:24.277Z,70.01
2019-03-27T07:44:56.344Z,70.52
2019-03-27T07:47:28.433Z,71.36
2019-03-27T07:50:00.452Z,71.07
2019-03-27T07:52:32.565Z,72.25
2019-03-27T07:55:18.400Z,72.62
2019-03-27T07:57:39.102Z,71.72
2019-03-27T08:00:15.114Z,71.96
2019-03-27T08:02:47.398Z,73.80
2019-03-27T08:05:19.607Z,73.86
2019-03-27T08:07:51.769Z,72.76
2019-03-27T08:10:23.880Z,72.42
2019-03-27T08:12:56.119Z,72.41
2019-03-27T08:15:28.228Z,72.73
2019-03-27T08:18:00.385Z,72.23
2019-03-27T08:20:32.762Z,70.36
2019-03-27T08:23:05.006Z,70.14
2019-03-27T08:25:37.303Z,71.14
2019-03-27T08:28:09.808Z,72.78
2019-03-27T08:30:42.075Z,73.03
2019-03-27T08:33:14.191Z,73.76
2019-03-27T08:35:46.297Z,73.42
2019-03-27T08:38:18.428Z,71.49
2019-03-27T08:40:50.650Z,71.91
2019-03-27T08:43:25.443Z,73.02
2019-03-27T08:45:58.040Z,72.46
2019-03-27T08:48:30.374Z,71.24
2019-03-27T08:51:02.603Z,70.85
2019-03-27T08:53:34.925Z,69.00
2019-03-27T08:56:07.307Z,67.57
2019-03-27T08:58:39.567Z,64.63
2019-03-27T09:01:12.062Z,65.41
2019-03-27T09:03:44.323Z,64.44
2019-03-27T09:06:16.703Z,62.73
2019-03-27T09:08:51.913Z,58.92
2019-03-27T09:11:27.669Z,54.25
2019-03-27T09:14:05.527Z,52.99
2019-03-27T09:16:37.962Z,53.23
2019-03-27T09:21:47.071Z,52.39
2019-03-27T09:24:23.438Z,48.52
2019-03-27T09:26:55.711Z,48.27
2019-03-27T09:29:28.177Z,46.66
2019-03-27T09:32:00.603Z,47.59
2019-03-27T09:34:35.891Z,48.10
2019-03-27T09:37:09.662Z,51.23
2019-03-27T09:39:42.021Z,48.37
2019-03-27T09:42:17.337Z,47.03
2019-03-27T09:44:49.875Z,49.03
2019-03-27T09:47:22.721Z,52.09
2019-03-27T09:49:57.420Z,54.63
2019-03-27T09:52:30.375Z,52.03
2019-03-27T09:55:02.844Z,54.25
2019-03-27T09:57:35.033Z,51.11
2019-03-27T10:00:08.587Z,54.72
2019-03-27T10:02:41.159Z,53.94
2019-03-27T10:05:13.684Z,53.11
2019-03-27T10:07:45.975Z,55.38
2019-03-27T10:10:18.528Z,53.55
2019-03-27T10:12:50.764Z,51.19
2019-03-27T10:15:23.006Z,51.68
2019-03-27T10:17:55.250Z,51.35
2019-03-27T10:20:27.753Z,50.82
2019-03-27T10:22:59.911Z,50.54
2019-03-27T10:25:32.406Z,49.15
2019-03-27T10:28:05.877Z,49.80
2019-03-27T10:30:38.452Z,49.78
2019-03-27T10:33:10.707Z,50.39
2019-03-27T10:35:42.971Z,50.32
2019-03-27T10:38:18.029Z,50.38
2019-03-27T10:40:50.441Z,51.90
2019-03-27T10:43:22.854Z,52.07
2019-03-27T10:45:54.976Z,51.03
2019-03-27T10:48:27.192Z,49.89
2019-03-27T10:50:59.315Z,50.14
2019-03-27T10:53:32.164Z,49.57
2019-03-27T10:56:04.280Z,49.81
2019-03-27T10:58:36.448Z,49.85
2019-03-27T11:01:09.784Z,51.69
2019-03-27T11:03:41.940Z,50.13
2019-03-27T11:06:14.182Z,49.21
2019-03-27T11:08:50.890Z,48.41
2019-03-27T11:11:25.740Z,48.90
2019-03-27T11:13:58.406Z,48.23
2019-03-27T11:16:30.611Z,46.98
2019-03-27T11:19:02.761Z,49.57
2019-03-27T11:21:34.842Z,48.06
2019-03-27T11:24:06.972Z,49.14
2019-03-27T11:26:39.070Z,51.03
2019-03-27T11:29:11.509Z,49.88
2019-03-27T11:31:43.722Z,46.83
2019-03-27T11:34:16.003Z,47.54
2019-03-27T11:36:48.221Z,49.77
2019-03-27T11:39:20.462Z,49.61
2019-03-27T11:41:52.606Z,49.30
2019-03-27T11:44:25.055Z,50.12
2019-03-27T11:46:57.086Z,51.53
2019-03-27T11:49:29.100Z,50.37
2019-03-27T11:52:01.479Z,49.04
2019-03-27T11:54:33.624Z,49.36
2019-03-27T11:57:05.788Z,49.83
2019-03-27T11:59:37.932Z,50.98
2019-03-27T12:02:25.618Z,49.13
2019-03-27T12:04:57.814Z,48.45
2019-03-27T12:07:29.927Z,47.29
2019-03-27T12:10:02.205Z,48.14
2019-03-27T12:12:34.435Z,47.53
2019-03-27T12:15:07.602Z,48.22
2019-03-27T12:17:39.776Z,47.65
2019-03-27T12:20:12.337Z,46.28
2019-03-27T12:22:56.933Z,47.30
2019-03-27T12:25:18.280Z,48.02
2019-03-27T12:27:50.413Z,48.48
2019-03-27T12:30:22.688Z,46.88
2019-03-27T12:32:54.904Z,46.52
2019-03-27T12:35:27.254Z,46.72
2019-03-27T12:37:59.328Z,46.84
2019-03-27T12:40:31.550Z,46.28
2019-03-27T12:43:05.312Z,45.76
2019-03-27T12:45:37.785Z,47.69
2019-03-27T12:48:10.368Z,47.35
2019-03-27T12:50:44.288Z,46.54
2019-03-27T12:53:16.298Z,44.85
2019-03-27T12:55:48.507Z,46.54
2019-03-27T12:58:25.047Z,46.26
2019-03-27T13:00:57.172Z,47.09
2019-03-27T13:03:32.235Z,45.66
2019-03-27T13:06:04.420Z,46.78
2019-03-27T13:08:36.554Z,47.71
2019-03-27T13:11:08.644Z,48.60
2019-03-27T13:13:40.721Z,49.27
2019-03-27T13:16:12.961Z,48.13
2019-03-27T13:18:45.135Z,47.68
2019-03-27T13:21:26.269Z,50.05
2019-03-27T13:23:51.185Z,47.40
2019-03-27T13:26:23.297Z,46.96
2019-03-27T13:28:55.386Z,47.34
2019-03-27T13:31:30.569Z,46.98
2019-03-27T13:34:02.668Z,46.67
2019-03-27T13:36:36.047Z,44.48
2019-03-27T13:39:10.664Z,47.38
2019-03-27T13:41:42.896Z,47.81
2019-03-27T13:44:15.009Z,45.32
2019-03-27T13:46:48.171Z,41.99
2019-03-27T13:49:26.095Z,45.27
2019-03-27T13:52:05.501Z,44.49
2019-03-27T13:54:37.998Z,45.74
2019-03-27T13:57:10.280Z,47.15
2019-03-27T13:59:42.425Z,45.69
2019-03-27T14:02:14.798Z,47.54
2019-03-27T14:04:47.238Z,50.48
2019-03-27T14:07:19.755Z,48.54
2019-03-27T14:09:52.121Z,47.26
2019-03-27T14:12:24.563Z,47.21
2019-03-27T14:14:56.931Z,46.11
2019-03-27T14:17:29.177Z,47.25
2019-03-27T14:20:01.541Z,47.27
2019-03-27T14:22:33.695Z,45.18
2019-03-27T14:25:06.637Z,46.38
2019-03-27T14:27:38.892Z,46.73
2019-03-27T14:30:15.836Z,47.52
2019-03-27T14:32:48.059Z,44.14
2019-03-27T14:35:20.249Z,46.93
2019-03-27T14:37:52.500Z,48.53
2019-03-27T14:40:25.098Z,49.18
2019-03-27T14:42:57.707Z,46.81
2019-03-27T14:45:30.174Z,47.75
2019-03-27T14:48:02.594Z,48.01
2019-03-27T14:50:35.366Z,46.95
2019-03-27T14:53:07.710Z,47.65
2019-03-27T14:55:40.197Z,46.91
2019-03-27T14:58:12.551Z,46.84
2019-03-27T15:00:44.825Z,46.08
2019-03-27T15:03:17.053Z,48.51
2019-03-27T15:05:49.175Z,47.45
2019-03-27T15:08:21.548Z,49.02
2019-03-27T15:10:54.070Z,47.45
2019-03-27T15:13:26.632Z,47.96
2019-03-27T15:15:58.868Z,47.60
2019-03-27T15:18:31.141Z,48.14
2019-03-27T15:21:06.174Z,47.23
2019-03-27T15:23:38.707Z,49.06
2019-03-27T15:26:10.991Z,47.40
2019-03-27T15:28:43.270Z,48.19
2019-03-27T15:31:20.791Z,48.29
2019-03-27T15:33:49.205Z,49.03
2019-03-27T15:36:21.423Z,48.55
2019-03-27T15:38:53.663Z,48.53
2019-03-27T15:41:26.130Z,48.44
2019-03-27T15:43:58.244Z,48.56
2019-03-27T15:46:30.461Z,50.39
2019-03-27T15:49:02.692Z,50.14
2019-03-27T15:51:35.144Z,48.93
2019-03-27T15:54:07.306Z,48.36
2019-03-27T15:56:39.561Z,49.21
2019-03-27T15:59:11.901Z,50.18
2019-03-27T16:01:44.382Z,50.42
2019-03-27T16:04:16.765Z,49.34
2019-03-27T16:06:49.176Z,51.08
2019-03-27T16:09:21.661Z,50.06
2019-03-27T16:11:54.044Z,49.64
2019-03-27T16:14:26.399Z,51.14
2019-03-27T16:17:12.808Z,50.15
2019-03-27T16:19:33.773Z,49.58
2019-03-27T16:22:06.228Z,49.63
2019-03-27T16:24:38.409Z,49.39
2019-03-27T16:27:10.732Z,49.38
2019-03-27T16:29:43.047Z,49.54
2019-03-27T16:32:15.438Z,51.07
2019-03-27T16:34:51.020Z,50.72
2019-03-27T16:37:23.466Z,51.66
2019-03-27T16:39:55.735Z,50.40
2019-03-27T16:42:28.147Z,50.35
2019-03-27T16:47:37.139Z,50.97
2019-03-27T16:50:11.199Z,51.65
2019-03-27T16:52:43.640Z,50.63
2019-03-27T16:55:15.926Z,49.98
2019-03-27T16:57:51.264Z,51.17
2019-03-27T17:00:22.451Z,50.43
2019-03-27T17:02:54.719Z,51.78
2019-03-27T17:05:26.960Z,52.18
2019-03-27T17:07:59.349Z,53.01
2019-03-27T17:10:31.522Z,53.24
2019-03-27T17:13:03.673Z,52.30
2019-03-27T17:15:35.984Z,55.02
2019-03-27T17:18:08.368Z,53.90
2019-03-27T17:20:40.494Z,54.25
2019-03-27T17:23:18.528Z,56.08
2019-03-27T17:25:46.832Z,54.92
2019-03-27T17:28:19.095Z,55.30
2019-03-27T17:30:51.550Z,54.81
2019-03-27T17:33:23.648Z,55.04
2019-03-27T17:36:01.545Z,55.98
2019-03-27T17:38:34.070Z,55.86
2019-03-27T17:41:06.234Z,56.14
2019-03-27T17:43:38.350Z,56.42
2019-03-27T17:46:10.651Z,57.35
2019-03-27T17:48:43.095Z,57.62
2019-03-27T17:51:15.130Z,56.83
2019-03-27T17:53:47.394Z,57.23
2019-03-27T17:56:20.080Z,57.37
2019-03-27T17:58:52.541Z,58.37
2019-03-27T18:01:24.848Z,59.75
2019-03-27T18:03:56.930Z,60.39
2019-03-27T18:06:29.103Z,60.36
2019-03-27T18:09:01.177Z,60.48
2019-03-27T18:11:35.439Z,60.61
2019-03-27T18:16:40.449Z,60.18
2019-03-27T18:19:12.884Z,60.33
2019-03-27T18:21:48.126Z,60.50
2019-03-27T18:24:24.339Z,60.84
2019-03-27T18:26:56.605Z,60.22
2019-03-27T18:29:28.738Z,60.29
2019-03-27T18:32:00.987Z,60.48
2019-03-27T18:34:38.130Z,60.10
2019-03-27T18:37:12.858Z,59.16
2019-03-27T18:39:48.803Z,60.17
2019-03-27T18:42:24.157Z,59.82
2019-03-27T18:44:56.462Z,59.97
2019-03-27T18:47:28.682Z,59.57
2019-03-27T18:50:02.471Z,60.26
2019-03-27T18:52:34.588Z,59.56
2019-03-27T18:55:07.343Z,59.58
2019-03-27T18:57:39.531Z,59.62
2019-03-27T19:00:13.503Z,60.49
2019-03-27T19:02:45.707Z,60.55
2019-03-27T19:05:18.183Z,59.94
2019-03-27T19:07:50.340Z,60.26
2019-03-27T19:10:22.594Z,60.25
2019-03-27T19:12:55.825Z,60.36
2019-03-27T19:15:28.035Z,60.63
2019-03-27T19:18:00.348Z,60.70
2019-03-27T19:20:40.955Z,61.01
2019-03-27T19:23:13.162Z,60.72
2019-03-27T19:25:45.446Z,60.88
2019-03-27T19:28:17.493Z,61.01
2019-03-27T19:30:49.679Z,61.32
2019-03-27T19:33:27.809Z,60.48
2019-03-27T19:36:10.125Z,60.54
2019-03-27T19:38:49.673Z,60.90
2019-03-27T19:41:21.897Z,61.23
2019-03-27T19:43:54.072Z,60.98
2019-03-27T19:46:26.240Z,60.55
2019-03-27T19:48:58.571Z,60.43
2019-03-27T19:51:30.743Z,60.40
2019-03-27T19:54:04.091Z,60.66
2019-03-27T19:56:36.201Z,60.59
2019-03-27T19:59:08.384Z,59.99
2019-03-27T20:01:40.537Z,60.28
2019-03-27T20:04:12.658Z,60.16
2019-03-27T20:06:54.201Z,60.88
2019-03-27T20:09:26.369Z,61.20
2019-03-27T20:11:58.637Z,61.14
2019-03-27T20:14:33.259Z,60.99
2019-03-27T20:17:05.678Z,61.22
2019-03-27T20:19:43.531Z,61.26
2019-03-27T20:22:15.617Z,61.97
2019-03-27T20:24:47.664Z,62.14
2019-03-27T20:27:20.153Z,61.82
2019-03-27T20:29:52.221Z,61.03
2019-03-27T20:32:24.473Z,61.66
2019-03-27T20:34:57.639Z,62.11
2019-03-27T20:37:29.812Z,62.67
2019-03-27T20:40:01.981Z,62.10
2019-03-27T20:42:34.125Z,61.83
2019-03-27T20:45:06.727Z,61.83
2019-03-27T20:47:38.963Z,62.10
2019-03-27T20:50:11.834Z,61.27
2019-03-27T20:52:43.952Z,61.32
2019-03-27T20:55:29.319Z,61.74
2019-03-27T20:57:50.220Z,61.65
2019-03-27T21:00:22.558Z,62.10
2019-03-27T21:02:54.735Z,62.15
2019-03-27T21:05:28.946Z,61.95
2019-03-27T21:08:01.212Z,62.14
2019-03-27T21:10:33.516Z,62.96
2019-03-27T21:13:09.800Z,63.00
2019-03-27T21:15:41.919Z,63.04
2019-03-27T21:18:14.232Z,63.55
2019-03-27T21:20:46.364Z,63.42
2019-03-27T21:23:18.421Z,63.19
2019-03-27T21:25:51.627Z,63.66
2019-03-27T21:28:25.315Z,63.47
2019-03-27T21:30:57.702Z,64.10
2019-03-27T21:33:30.139Z,64.68
2019-03-27T21:36:03.547Z,63.67
2019-03-27T21:38:35.822Z,64.08
2019-03-27T21:41:08.227Z,63.84
2019-03-27T21:43:40.490Z,64.00
2019-03-27T21:46:13.245Z,64.49
2019-03-27T21:48:48.472Z,63.81
2019-03-27T21:51:23.565Z,63.66
2019-03-27T21:53:55.902Z,63.71
2019-03-27T21:56:28.116Z,63.89
2019-03-27T21:59:02.518Z,63.69
2019-03-27T22:01:34.046Z,64.33
2019-03-27T22:04:06.258Z,64.19
2019-03-27T22:06:38.723Z,64.33
2019-03-27T22:09:11.179Z,64.56
2019-03-27T22:11:43.373Z,64.88
2019-03-27T22:14:15.433Z,64.42
2019-03-27T22:16:47.636Z,64.66
2019-03-27T22:19:19.776Z,65.07
2019-03-27T22:22:02.793Z,64.96
2019-03-27T22:24:34.890Z,64.91
2019-03-27T22:27:07.108Z,65.22
2019-03-27T22:29:39.226Z,65.54
2019-03-27T22:32:11.442Z,65.53
2019-03-27T22:34:44.452Z,65.49
2019-03-27T22:37:16.744Z,65.76
2019-03-27T22:39:48.852Z,66.06
2019-03-27T22:42:21.003Z,66.52
2019-03-27T22:44:53.153Z,66.17
2019-03-27T22:47:25.645Z,66.25
2019-03-27T22:49:57.738Z,66.42
2019-03-27T22:52:29.907Z,66.41
2019-03-27T22:55:02.020Z,66.40
2019-03-27T22:57:34.179Z,66.96
2019-03-27T23:00:07.625Z,67.03
2019-03-27T23:02:40.848Z,67.15
2019-03-27T23:05:16.302Z,67.58
2019-03-27T23:07:48.449Z,67.50
2019-03-27T23:10:20.627Z,67.54
2019-03-27T23:12:55.891Z,67.59
2019-03-27T23:15:30.623Z,67.94
2019-03-27T23:18:02.785Z,68.07
2019-03-27T23:20:34.926Z,68.02
2019-03-27T23:23:07.032Z,68.25
2019-03-27T23:25:39.147Z,68.11
2019-03-27T23:28:11.240Z,68.15
2019-03-27T23:30:43.306Z,68.21
2019-03-27T23:33:15.559Z,68.01
2019-03-27T23:35:47.677Z,67.71
2019-03-27T23:38:19.849Z,67.74
2019-03-27T23:40:51.962Z,67.88
2019-03-27T23:43:24.102Z,67.71
2019-03-27T23:45:56.287Z,67.71
2019-03-27T23:48:28.406Z,67.92
2019-03-27T23:51:00.476Z,68.41
2019-03-27T23:53:32.586Z,69.04
2019-03-27T23:56:15.828Z,69.03
2019-03-27T23:58:38.688Z,69.35
